• Join FlightAware (Why Join?)
  • Login
  • US Flag 
02:21AM EDT


 

Airport Tracker/Info


-or-


 

Live Flight TrackerFlight Track Log ✈ N421VA ✈ 31-Mar-2014 ✈ KBKL - KPMH

Flight Track Log - Related Links

Times and Time Zones

All times are in EDT time to prevent confusion due to time zone crossing. See the N421VA flight status page for this flight to view local times or setup timezone preferences in your user account.

Time Position Orientation Groundspeed Altitude Reporting Facility
EDT Latitude Longitude Course Direction KTS MPH feet Rate Location/Type
04:26PM 41.5356 -81.6725 326° Northwest 140 161 1,300  Level Cleveland Center
04:27PM 41.5433 -81.6794 326° Northwest 137 158 1,600 840 Climbing Cleveland Center
04:28PM 41.5558 -81.7211 292° West 137 158 2,400 840 Climbing Cleveland Center
04:28PM 41.5581 -81.7264 299° West 137 158 2,500 1,140 Climbing Cleveland Center
04:29PM 41.5914 -81.7514 331° Northwest 141 162 3,600 1,020 Climbing Cleveland Center
04:30PM 41.6258 -81.7656 343° North 139 160 4,500 840 Climbing Cleveland Center
04:30PM 41.6261 -81.7647 66° East 139 160 4,500 840 Level Cleveland Center
04:31PM 41.6250 -81.8186 268° West 142 163 5,400 900 Climbing Cleveland Center
04:31PM 41.6242 -81.8217 250° West 142 163 5,500 840 Climbing Cleveland Center
04:32PM 41.5967 -81.8531 220° Southwest 147 169 6,300 840 Climbing Cleveland Center
04:32PM 41.5936 -81.8556 211° Southwest 147 169 6,400 900 Climbing Cleveland Center
04:33PM 41.5642 -81.8869 219° Southwest 151 174 7,200 720 Climbing Cleveland Center
04:33PM 41.5597 -81.8889 198° South 147 169 7,200 720 Level Cleveland Center
04:34PM 41.5244 -81.9208 214° Southwest 148 170 8,100 900 Climbing Cleveland Center
04:35PM 41.4831 -81.9336 193° South 150 173 9,100 900 Climbing Cleveland Center
04:36PM 41.4406 -81.9389 185° South 150 173 10,000 840 Climbing Cleveland Center
04:37PM 41.3911 -81.9447 185° South 151 174 10,900 780 Climbing Cleveland Center
04:38PM 41.3467 -81.9500 185° South 153 176 11,700 720 Climbing Cleveland Center
04:39PM 41.3017 -81.9528 183° South 159 183 12,400 720 Climbing Cleveland Center
04:40PM 41.2575 -81.9614 188° South 159 183 13,300 720 Climbing Cleveland Center
04:41PM 41.2131 -81.9728 191° South 160 184 13,900 300 Climbing Cleveland Center
04:42PM 41.1636 -81.9844 190° South 177 204 14,000  Climbing Cleveland Center
04:43PM 41.1025 -82.0058 195° South 188 216 13,900  Descending Cleveland Center
04:44PM 41.0522 -82.0214 193° South 189 217 14,000  Climbing Cleveland Center
04:45PM 41.0011 -82.0344 191° South 187 215 14,000  Level Cleveland Center
04:47PM 40.8986 -82.0525 188° South 186 214 14,100  Climbing Indianapolis Center
04:48PM 40.8469 -82.0639 189° South 186 214 14,000 -60 Descending Indianapolis Center
04:49PM 40.7883 -82.0867 196° South 186 214 14,000 -60 Level Cleveland Center
04:50PM 40.7403 -82.1103 200° South 185 213 13,900  Descending Cleveland Center
04:51PM 40.6919 -82.1300 197° South 185 213 14,000  Climbing Indianapolis Center
04:52PM 40.6433 -82.1486 196° South 184 212 14,000  Level Indianapolis Center
04:54PM 40.5944 -82.1700 198° South 184 212 14,100  Climbing Indianapolis Center
04:55PM 40.5456 -82.1886 196° South 184 212 14,100  Level Indianapolis Center
04:56PM 40.4950 -82.2103 198° South 185 213 14,100  Level Indianapolis Center
04:57PM 40.4450 -82.2281 195° South 185 213 14,100 -60 Level Indianapolis Center
04:58PM 40.3875 -82.2539 199° South 185 213 14,000 -120 Descending Indianapolis Center
04:59PM 40.3389 -82.2761 199° South 185 213 13,900 -180 Descending Indianapolis Center
05:00PM 40.2864 -82.2939 194° South 186 214 13,700 -240 Descending Indianapolis Center
05:01PM 40.2342 -82.3111 194° South 189 217 13,500 -300 Descending Indianapolis Center
05:01PM 40.2094 -82.3214 198° South 194 223 13,300 -540 Descending Indianapolis Center
05:02PM 40.1814 -82.3303 194° South 192 221 13,000 -540 Descending Indianapolis Center
05:02PM 40.1553 -82.3406 197° South 198 228 12,800 -420 Descending Indianapolis Center
05:03PM 40.1269 -82.3517 197° South 195 224 12,600 -360 Descending Indianapolis Center
05:03PM 40.0989 -82.3622 196° South 201 231 12,400 -300 Descending Indianapolis Center
05:04PM 40.0750 -82.3731 199° South 197 227 12,300 -360 Descending Indianapolis Center
05:04PM 40.0508 -82.3822 196° South 200 230 12,100 -420 Descending Indianapolis Center
05:05PM 40.0103 -82.3964 195° South 198 228 11,900 -420 Descending Indianapolis Center
05:05PM 39.9964 -82.4039 202° Southwest 200 230 11,700 -420 Descending Indianapolis Center
05:06PM 39.9564 -82.4203 197° South 202 232 11,500 -300 Descending Indianapolis Center
05:06PM 39.9394 -82.4306 205° Southwest 202 232 11,400 -300 Descending Indianapolis Center
05:07PM 39.9039 -82.4461 199° South 202 232 11,200 -360 Descending Indianapolis Center
05:07PM 39.8911 -82.4533 203° Southwest 203 234 11,100 -240 Descending Indianapolis Center
05:08PM 39.8531 -82.4708 199° South 202 232 11,000 -120 Descending Indianapolis Center
05:08PM 39.8361 -82.4803 203° Southwest 196 226 11,000 -120 Level Indianapolis Center
05:09PM 39.8019 -82.4928 196° South 199 229 10,900 -360 Descending Indianapolis Center
05:09PM 39.7883 -82.4975 195° South 191 220 10,700 -720 Descending Indianapolis Center
05:10PM 39.7469 -82.5106 194° South 199 229 10,200 -720 Descending Indianapolis Center
05:10PM 39.7322 -82.5161 196° South 210 242 10,000 -1,200 Descending Indianapolis Center
05:11PM 39.6783 -82.5331 194° South 205 236 9,000 -900 Descending Indianapolis Center
05:12PM 39.6206 -82.5536 195° South 212 244 8,200 -840 Descending Indianapolis Center
05:13PM 39.5639 -82.5717 194° South 212 244 7,300 -840 Descending Indianapolis Center
05:14PM 39.5094 -82.5900 195° South 209 241 6,500 -720 Descending Indianapolis Center
05:15PM 39.4522 -82.6050 191° South 209 241 5,900 -660 Descending Indianapolis Center
05:16PM 39.3986 -82.6253 196° South 207 238 5,200 -480 Descending Indianapolis Center
05:17PM 39.3375 -82.6472 196° South 198 228 5,000 -60 Descending Indianapolis Center
05:18PM 39.2900 -82.6639 195° South 185 213 5,100  Climbing Indianapolis Center
05:19PM 39.2439 -82.6789 194° South 179 206 5,100 -60 Level Indianapolis Center
05:21PM 39.1542 -82.7261 201° Southwest 176 203 5,000 -300 Descending Indianapolis Center
05:23PM 39.1092 -82.7556 207° Southwest 176 203 4,200 -540 Descending Indianapolis Center
05:24PM 39.0522 -82.7917 206° Southwest 185 213 4,000 -240 Descending Indianapolis Center